Maria — SV7156 — position and weather

sailwx.info

Track history (hours):
 
Tides and Currents Weather Stations Pressure Air Temp Water Temp Dewpoint Dewpoint Depression Visibility Wind Speed Wind Dir Waves Ship Positions

Maria

Last reported at 2016-May-29 11:33 UTC. Time now 2016-May-30 01:10 UTC.
Position N 37°58' E 023°33'.

Length 74 m; draft 4.5 m.

Type: Ship. MMSI: 237493000.

Date/timePositionNaut miles runAvg speedWind from/ knotsBaromVisibWave heightAir tempDewpointWater temp
2016-May-29 11:33N 37°58' E 023°33'4 4.1
2016-May-29 10:34N 38°02' E 023°36'0 0.0
2016-May-29 09:33N 38°02' E 023°36'0 0.0
2016-May-29 08:33N 38°02' E 023°36'0 0.0
2016-May-29 07:33N 38°02' E 023°36'1 1.2
2016-May-29 06:33N 38°01' E 023°34'4 3.6
2016-May-29 05:33N 37°57' E 023°35'0 0.0
2016-May-29 04:33N 37°57' E 023°35'0 0.0
2016-May-29 03:33N 37°57' E 023°35'0 0.0
2016-May-29 02:33N 37°57' E 023°35'0 0.0
2016-May-29 01:33N 37°57' E 023°35'0 0.0
2016-May-29 00:33N 37°57' E 023°35'0 0.0
2016-May-28 23:33N 37°57' E 023°35'1 0.6
2016-May-28 22:33N 37°58' E 023°35'0 0.0
2016-May-28 21:33N 37°58' E 023°35'1 0.6
2016-May-28 20:33N 37°57' E 023°35'0 0.0
2016-May-28 19:33N 37°57' E 023°35'0 0.0
2016-May-28 18:33N 37°57' E 023°35'0 0.0
2016-May-28 17:33N 37°57' E 023°35'0 0.0
2016-May-28 16:33N 37°57' E 023°35'0 0.0
2016-May-28 15:33N 37°57' E 023°35'0 0.0
2016-May-28 14:33N 37°57' E 023°35'4 4.3
2016-May-28 13:34N 37°53' E 023°33'0 0.0
2016-May-28 12:33N 37°53' E 023°33'0 0.0
2016-May-28 11:33N 37°53' E 023°33'1 0.5
2016-May-28 10:33N 37°53' E 023°33'0 0.0
2016-May-28 09:33N 37°53' E 023°33'0 0.1
2016-May-28 08:33N 37°53' E 023°33'5 0.3
2016-May-27 14:33N 37°58' E 023°35'4 4.2
2016-May-27 13:33N 38°01' E 023°32'0 0.1
2016-May-27 12:32N 38°01' E 023°32'0 0.1
2016-May-27 11:33N 38°01' E 023°32'0 0.1
2016-May-27 10:33N 38°01' E 023°32'0 0.4
2016-May-27 09:33N 38°02' E 023°32'0 0.1
2016-May-27 08:33N 38°02' E 023°32'0 0.0
2016-May-27 07:33N 38°02' E 023°32'2 1.6
2016-May-27 06:33N 38°01' E 023°34'1 1.4
2016-May-27 05:33N 38°02' E 023°36'0 0.0
2016-May-27 04:33N 38°02' E 023°36'0 0.0
2016-May-27 03:33N 38°02' E 023°36'0 0.0
2016-May-27 02:33N 38°02' E 023°36'0 0.0
2016-May-27 01:33N 38°02' E 023°36'1 0.7
2016-May-27 00:33N 38°02' E 023°35'0 0.0
2016-May-26 23:33N 38°02' E 023°35'0 0.0
2016-May-26 22:33N 38°02' E 023°35'0 0.0
2016-May-26 21:33N 38°02' E 023°35'0 0.0
2016-May-26 20:33N 38°02' E 023°35'0 0.0
2016-May-26 19:33N 38°02' E 023°35'0 0.0
2016-May-26 18:33N 38°02' E 023°35'0 0.0
2016-May-26 17:33N 38°02' E 023°35'4 4.3
2016-May-26 16:33N 37°58' E 023°35'0 0.0
2016-May-25 07:13N 37°58' E 023°35'1 0.1
2016-May-24 17:33N 37°57' E 023°36'2 1.8
2016-May-24 16:32N 37°56' E 023°38'0 0.0
2016-May-24 15:29N 37°56' E 023°38'0 0.0
2016-May-24 14:33N 37°56' E 023°38'0 0.0
2016-May-24 13:33N 37°56' E 023°38'0 0.0
2016-May-24 12:33N 37°56' E 023°38'0 0.0
2016-May-24 11:34N 37°56' E 023°38'0 0.0
2016-May-24 10:34N 37°56' E 023°38'0 0.0
2016-May-24 09:33N 37°56' E 023°38'1 1.3
2016-May-24 08:34N 37°56' E 023°37'2 1.9
2016-May-24 07:34N 37°58' E 023°35'0 0.0
2016-May-24 06:34N 37°58' E 023°35'0 0.0
2016-May-24 05:33N 37°58' E 023°35'4 4.0
2016-May-24 04:34N 38°02' E 023°35'0 0.3
2016-May-24 03:33N 38°02' E 023°35'0 0.0
2016-May-24 02:34N 38°02' E 023°35'0 0.0
2016-May-24 01:33N 38°02' E 023°35'0 0.0
2016-May-24 00:33N 38°02' E 023°35'1 0.8
2016-May-23 23:33N 38°02' E 023°36'0 0.0
2016-May-23 22:33N 38°02' E 023°36'0 0.0
2016-May-23 21:33N 38°02' E 023°36'0 0.0
2016-May-23 20:34N 38°02' E 023°36'0 0.0
2016-May-23 19:34N 38°02' E 023°36'0 0.0
2016-May-23 18:33N 38°02' E 023°36'1 0.6
2016-May-23 17:33N 38°02' E 023°35'0 0.0
2016-May-23 16:34N 38°02' E 023°35'0 0.0
2016-May-23 15:34N 38°02' E 023°35'0 0.0
2016-May-23 14:33N 38°02' E 023°35'0 0.0
2016-May-23 13:33N 38°02' E 023°35'0 0.0
2016-May-23 12:34N 38°02' E 023°35'0 0.1
2016-May-23 11:34N 38°02' E 023°35'5 4.7
2016-May-23 10:33N 37°57' E 023°35'6 5.8
2016-May-23 09:34N 37°52' E 023°31'0 0.0
2016-May-23 08:33N 37°52' E 023°31'0 0.0
2016-May-23 07:33N 37°52' E 023°31'0 0.0
2016-May-23 06:33N 37°52' E 023°31'0 0.1
2016-May-23 05:33N 37°52' E 023°31'4 4.1
2016-May-23 04:34N 37°55' E 023°34'2 0.1
2016-May-21 12:33N 37°57' E 023°35'1 0.9
2016-May-21 11:33N 37°57' E 023°36'0 0.0
2016-May-21 10:33N 37°57' E 023°36'0 0.0
2016-May-21 09:34N 37°57' E 023°36'0 0.0
2016-May-21 08:33N 37°57' E 023°36'0 0.0
2016-May-21 07:33N 37°57' E 023°36'0 0.0
2016-May-20 16:33N 37°58' E 023°36'0 0.1
2016-May-20 15:33N 37°57' E 023°36'0 0.0
2016-May-20 14:33N 37°57' E 023°36'0 0.0
2016-May-20 13:33N 37°57' E 023°36'0 0.0
2016-May-20 12:33N 37°57' E 023°36'1 1.1
2016-May-20 11:33N 37°58' E 023°35'0 0.0
2016-May-19 15:20N 37°58' E 023°35'3 3.7
2016-May-19 14:33N 38°00' E 023°33'2 2.2
2016-May-19 13:33N 38°02' E 023°36'0 0.0
2016-May-19 12:33N 38°02' E 023°36'0 0.0
2016-May-19 11:33N 38°02' E 023°36'  
Track history (hours):
 
Tides and Currents Weather Stations Pressure Air Temp Water Temp Dewpoint Dewpoint Depression Visibility Wind Speed Wind Dir Waves Ship Positions

Maria

Last reported at 2016-May-29 11:33 UTC. Time now 2016-May-30 01:10 UTC.
Position N 37°58' E 023°33'.

Length 74 m; draft 4.5 m.

Type: Ship. MMSI: 237493000.

Date/timePositionNaut miles runAvg speedWind from/ knotsBaromVisibWave heightAir tempDewpointWater temp
2016-May-29 11:33N 37°58' E 023°33'4 4.1
2016-May-29 10:34N 38°02' E 023°36'0 0.0
2016-May-29 09:33N 38°02' E 023°36'0 0.0
2016-May-29 08:33N 38°02' E 023°36'0 0.0
2016-May-29 07:33N 38°02' E 023°36'1 1.2
2016-May-29 06:33N 38°01' E 023°34'4 3.6
2016-May-29 05:33N 37°57' E 023°35'0 0.0
2016-May-29 04:33N 37°57' E 023°35'0 0.0
2016-May-29 03:33N 37°57' E 023°35'0 0.0
2016-May-29 02:33N 37°57' E 023°35'0 0.0
2016-May-29 01:33N 37°57' E 023°35'0 0.0
2016-May-29 00:33N 37°57' E 023°35'0 0.0
2016-May-28 23:33N 37°57' E 023°35'1 0.6
2016-May-28 22:33N 37°58' E 023°35'0 0.0
2016-May-28 21:33N 37°58' E 023°35'1 0.6
2016-May-28 20:33N 37°57' E 023°35'0 0.0
2016-May-28 19:33N 37°57' E 023°35'0 0.0
2016-May-28 18:33N 37°57' E 023°35'0 0.0
2016-May-28 17:33N 37°57' E 023°35'0 0.0
2016-May-28 16:33N 37°57' E 023°35'0 0.0
2016-May-28 15:33N 37°57' E 023°35'0 0.0
2016-May-28 14:33N 37°57' E 023°35'4 4.3
2016-May-28 13:34N 37°53' E 023°33'0 0.0
2016-May-28 12:33N 37°53' E 023°33'0 0.0
2016-May-28 11:33N 37°53' E 023°33'1 0.5
2016-May-28 10:33N 37°53' E 023°33'0 0.0
2016-May-28 09:33N 37°53' E 023°33'0 0.1
2016-May-28 08:33N 37°53' E 023°33'5 0.3
2016-May-27 14:33N 37°58' E 023°35'4 4.2
2016-May-27 13:33N 38°01' E 023°32'0 0.1
2016-May-27 12:32N 38°01' E 023°32'0 0.1
2016-May-27 11:33N 38°01' E 023°32'0 0.1
2016-May-27 10:33N 38°01' E 023°32'0 0.4
2016-May-27 09:33N 38°02' E 023°32'0 0.1
2016-May-27 08:33N 38°02' E 023°32'0 0.0
2016-May-27 07:33N 38°02' E 023°32'2 1.6
2016-May-27 06:33N 38°01' E 023°34'1 1.4
2016-May-27 05:33N 38°02' E 023°36'0 0.0
2016-May-27 04:33N 38°02' E 023°36'0 0.0
2016-May-27 03:33N 38°02' E 023°36'0 0.0
2016-May-27 02:33N 38°02' E 023°36'0 0.0
2016-May-27 01:33N 38°02' E 023°36'1 0.7
2016-May-27 00:33N 38°02' E 023°35'0 0.0
2016-May-26 23:33N 38°02' E 023°35'0 0.0
2016-May-26 22:33N 38°02' E 023°35'0 0.0
2016-May-26 21:33N 38°02' E 023°35'0 0.0
2016-May-26 20:33N 38°02' E 023°35'0 0.0
2016-May-26 19:33N 38°02' E 023°35'0 0.0
2016-May-26 18:33N 38°02' E 023°35'0 0.0
2016-May-26 17:33N 38°02' E 023°35'4 4.3
2016-May-26 16:33N 37°58' E 023°35'0 0.0
2016-May-25 07:13N 37°58' E 023°35'1 0.1
2016-May-24 17:33N 37°57' E 023°36'2 1.8
2016-May-24 16:32N 37°56' E 023°38'0 0.0
2016-May-24 15:29N 37°56' E 023°38'0 0.0
2016-May-24 14:33N 37°56' E 023°38'0 0.0
2016-May-24 13:33N 37°56' E 023°38'0 0.0
2016-May-24 12:33N 37°56' E 023°38'0 0.0
2016-May-24 11:34N 37°56' E 023°38'0 0.0
2016-May-24 10:34N 37°56' E 023°38'0 0.0
2016-May-24 09:33N 37°56' E 023°38'1 1.3
2016-May-24 08:34N 37°56' E 023°37'2 1.9
2016-May-24 07:34N 37°58' E 023°35'0 0.0
2016-May-24 06:34N 37°58' E 023°35'0 0.0
2016-May-24 05:33N 37°58' E 023°35'4 4.0
2016-May-24 04:34N 38°02' E 023°35'0 0.3
2016-May-24 03:33N 38°02' E 023°35'0 0.0
2016-May-24 02:34N 38°02' E 023°35'0 0.0
2016-May-24 01:33N 38°02' E 023°35'0 0.0
2016-May-24 00:33N 38°02' E 023°35'1 0.8
2016-May-23 23:33N 38°02' E 023°36'0 0.0
2016-May-23 22:33N 38°02' E 023°36'0 0.0
2016-May-23 21:33N 38°02' E 023°36'0 0.0
2016-May-23 20:34N 38°02' E 023°36'0 0.0
2016-May-23 19:34N 38°02' E 023°36'0 0.0
2016-May-23 18:33N 38°02' E 023°36'1 0.6
2016-May-23 17:33N 38°02' E 023°35'0 0.0
2016-May-23 16:34N 38°02' E 023°35'0 0.0
2016-May-23 15:34N 38°02' E 023°35'0 0.0
2016-May-23 14:33N 38°02' E 023°35'0 0.0
2016-May-23 13:33N 38°02' E 023°35'0 0.0
2016-May-23 12:34N 38°02' E 023°35'0 0.1
2016-May-23 11:34N 38°02' E 023°35'5 4.7
2016-May-23 10:33N 37°57' E 023°35'6 5.8
2016-May-23 09:34N 37°52' E 023°31'0 0.0
2016-May-23 08:33N 37°52' E 023°31'0 0.0
2016-May-23 07:33N 37°52' E 023°31'0 0.0
2016-May-23 06:33N 37°52' E 023°31'0 0.1
2016-May-23 05:33N 37°52' E 023°31'4 4.1
2016-May-23 04:34N 37°55' E 023°34'2 0.1
2016-May-21 12:33N 37°57' E 023°35'1 0.9
2016-May-21 11:33N 37°57' E 023°36'0 0.0
2016-May-21 10:33N 37°57' E 023°36'0 0.0
2016-May-21 09:34N 37°57' E 023°36'0 0.0
2016-May-21 08:33N 37°57' E 023°36'0 0.0
2016-May-21 07:33N 37°57' E 023°36'0 0.0
2016-May-20 16:33N 37°58' E 023°36'0 0.1
2016-May-20 15:33N 37°57' E 023°36'0 0.0
2016-May-20 14:33N 37°57' E 023°36'0 0.0
2016-May-20 13:33N 37°57' E 023°36'0 0.0
2016-May-20 12:33N 37°57' E 023°36'1 1.1
2016-May-20 11:33N 37°58' E 023°35'0 0.0
2016-May-19 15:20N 37°58' E 023°35'3 3.7
2016-May-19 14:33N 38°00' E 023°33'2 2.2
2016-May-19 13:33N 38°02' E 023°36'0 0.0
2016-May-19 12:33N 38°02' E 023°36'0 0.0
2016-May-19 11:33N 38°02' E 023°36'  

Dump ship's entire track history